sensor_id;sensor_type;location;lat;lon;timestamp;P1;durP1;ratioP1;P2;durP2;ratioP2
36189;SDS011;22232;50.914;13.858;2023-08-07T00:00:33;4.45;;;1.55;;
36189;SDS011;22232;50.914;13.858;2023-08-07T00:03:01;2.88;;;1.88;;
36189;SDS011;22232;50.914;13.858;2023-08-07T00:05:30;2.63;;;2.00;;
36189;SDS011;22232;50.914;13.858;2023-08-07T00:07:57;1.98;;;1.75;;
36189;SDS011;22232;50.914;13.858;2023-08-07T00:10:26;3.47;;;2.42;;
36189;SDS011;22232;50.914;13.858;2023-08-07T00:12:53;7.93;;;3.05;;
36189;SDS011;22232;50.914;13.858;2023-08-07T00:15:21;3.72;;;3.13;;
36189;SDS011;22232;50.914;13.858;2023-08-07T00:17:49;5.05;;;3.15;;
36189;SDS011;22232;50.914;13.858;2023-08-07T00:20:17;3.97;;;3.10;;
36189;SDS011;22232;50.914;13.858;2023-08-07T00:22:45;3.72;;;3.05;;
36189;SDS011;22232;50.914;13.858;2023-08-07T00:25:13;4.93;;;3.25;;
36189;SDS011;22232;50.914;13.858;2023-08-07T00:27:40;4.50;;;2.72;;
36189;SDS011;22232;50.914;13.858;2023-08-07T00:30:08;4.20;;;3.03;;
36189;SDS011;22232;50.914;13.858;2023-08-07T00:32:36;4.13;;;2.97;;
36189;SDS011;22232;50.914;13.858;2023-08-07T00:35:05;3.58;;;2.92;;
36189;SDS011;22232;50.914;13.858;2023-08-07T00:37:35;4.00;;;2.63;;
36189;SDS011;22232;50.914;13.858;2023-08-07T00:40:04;7.10;;;2.65;;
36189;SDS011;22232;50.914;13.858;2023-08-07T00:42:32;4.22;;;2.60;;
36189;SDS011;22232;50.914;13.858;2023-08-07T00:45:00;3.65;;;2.72;;
36189;SDS011;22232;50.914;13.858;2023-08-07T00:47:28;7.30;;;3.03;;
36189;SDS011;22232;50.914;13.858;2023-08-07T00:49:56;3.78;;;2.47;;
36189;SDS011;22232;50.914;13.858;2023-08-07T00:52:26;3.28;;;2.67;;
36189;SDS011;22232;50.914;13.858;2023-08-07T00:54:53;4.30;;;2.78;;
36189;SDS011;22232;50.914;13.858;2023-08-07T00:57:22;2.72;;;2.47;;
36189;SDS011;22232;50.914;13.858;2023-08-07T00:59:52;4.75;;;2.80;;
36189;SDS011;22232;50.914;13.858;2023-08-07T01:02:20;3.47;;;2.30;;
36189;SDS011;22232;50.914;13.858;2023-08-07T01:04:48;3.72;;;2.75;;
36189;SDS011;22232;50.914;13.858;2023-08-07T01:07:17;3.85;;;2.65;;
36189;SDS011;22232;50.914;13.858;2023-08-07T01:09:45;7.38;;;3.22;;
36189;SDS011;22232;50.914;13.858;2023-08-07T01:12:19;5.10;;;2.78;;
36189;SDS011;22232;50.914;13.858;2023-08-07T01:14:56;3.67;;;2.83;;
36189;SDS011;22232;50.914;13.858;2023-08-07T01:17:29;2.67;;;2.15;;
36189;SDS011;22232;50.914;13.858;2023-08-07T01:20:00;3.35;;;2.30;;
36189;SDS011;22232;50.914;13.858;2023-08-07T01:22:30;4.97;;;2.25;;
36189;SDS011;22232;50.914;13.858;2023-08-07T01:24:58;2.80;;;2.28;;
36189;SDS011;22232;50.914;13.858;2023-08-07T01:32:55;5.65;;;2.45;;
36189;SDS011;22232;50.914;13.858;2023-08-07T01:35:36;3.75;;;2.28;;
36189;SDS011;22232;50.914;13.858;2023-08-07T01:38:10;3.33;;;1.85;;
36189;SDS011;22232;50.914;13.858;2023-08-07T01:40:40;2.30;;;2.10;;
36189;SDS011;22232;50.914;13.858;2023-08-07T01:43:10;4.05;;;2.40;;
36189;SDS011;22232;50.914;13.858;2023-08-07T01:45:38;6.68;;;2.33;;
36189;SDS011;22232;50.914;13.858;2023-08-07T01:48:07;5.75;;;2.28;;
36189;SDS011;22232;50.914;13.858;2023-08-07T01:50:35;4.75;;;1.95;;
36189;SDS011;22232;50.914;13.858;2023-08-07T01:53:03;3.35;;;2.20;;
36189;SDS011;22232;50.914;13.858;2023-08-07T01:55:31;4.80;;;2.67;;
36189;SDS011;22232;50.914;13.858;2023-08-07T01:57:59;3.33;;;2.08;;
36189;SDS011;22232;50.914;13.858;2023-08-07T02:00:27;4.57;;;2.65;;
36189;SDS011;22232;50.914;13.858;2023-08-07T02:02:55;3.70;;;2.40;;
36189;SDS011;22232;50.914;13.858;2023-08-07T02:05:22;4.00;;;2.47;;
36189;SDS011;22232;50.914;13.858;2023-08-07T02:07:50;4.47;;;2.40;;
36189;SDS011;22232;50.914;13.858;2023-08-07T02:10:20;3.58;;;2.72;;
36189;SDS011;22232;50.914;13.858;2023-08-07T02:12:48;4.00;;;2.50;;
36189;SDS011;22232;50.914;13.858;2023-08-07T02:15:16;3.25;;;2.80;;
36189;SDS011;22232;50.914;13.858;2023-08-07T02:17:44;3.53;;;2.75;;
36189;SDS011;22232;50.914;13.858;2023-08-07T02:20:11;3.10;;;2.80;;
36189;SDS011;22232;50.914;13.858;2023-08-07T02:22:39;3.35;;;2.97;;
36189;SDS011;22232;50.914;13.858;2023-08-07T02:25:07;3.50;;;3.20;;
36189;SDS011;22232;50.914;13.858;2023-08-07T02:27:38;4.65;;;3.55;;
36189;SDS011;22232;50.914;13.858;2023-08-07T02:30:06;4.82;;;3.60;;
36189;SDS011;22232;50.914;13.858;2023-08-07T02:32:34;5.18;;;3.80;;
36189;SDS011;22232;50.914;13.858;2023-08-07T02:35:02;7.07;;;4.38;;
36189;SDS011;22232;50.914;13.858;2023-08-07T02:37:30;5.20;;;4.70;;
36189;SDS011;22232;50.914;13.858;2023-08-07T02:39:58;6.25;;;4.97;;
36189;SDS011;22232;50.914;13.858;2023-08-07T02:42:25;5.82;;;5.22;;
36189;SDS011;22232;50.914;13.858;2023-08-07T02:44:53;7.75;;;6.32;;
36189;SDS011;22232;50.914;13.858;2023-08-07T02:47:21;7.07;;;6.38;;
36189;SDS011;22232;50.914;13.858;2023-08-07T02:49:49;8.43;;;6.35;;
36189;SDS011;22232;50.914;13.858;2023-08-07T02:52:17;8.27;;;6.32;;
36189;SDS011;22232;50.914;13.858;2023-08-07T02:54:45;7.50;;;6.70;;
36189;SDS011;22232;50.914;13.858;2023-08-07T02:57:13;9.38;;;6.53;;
36189;SDS011;22232;50.914;13.858;2023-08-07T02:59:40;8.60;;;7.28;;
36189;SDS011;22232;50.914;13.858;2023-08-07T03:02:08;7.90;;;7.10;;
36189;SDS011;22232;50.914;13.858;2023-08-07T03:04:36;9.23;;;7.82;;
36189;SDS011;22232;50.914;13.858;2023-08-07T03:07:04;10.25;;;7.75;;
36189;SDS011;22232;50.914;13.858;2023-08-07T03:09:32;7.90;;;7.03;;
36189;SDS011;22232;50.914;13.858;2023-08-07T03:12:00;10.48;;;6.97;;
36189;SDS011;22232;50.914;13.858;2023-08-07T03:14:31;7.72;;;6.93;;
36189;SDS011;22232;50.914;13.858;2023-08-07T03:16:59;7.47;;;6.78;;
36189;SDS011;22232;50.914;13.858;2023-08-07T03:19:27;7.45;;;6.10;;
36189;SDS011;22232;50.914;13.858;2023-08-07T03:21:54;5.18;;;4.68;;
36189;SDS011;22232;50.914;13.858;2023-08-07T03:24:22;5.40;;;4.70;;
36189;SDS011;22232;50.914;13.858;2023-08-07T03:26:50;5.15;;;4.07;;
36189;SDS011;22232;50.914;13.858;2023-08-07T03:29:18;4.65;;;4.10;;
36189;SDS011;22232;50.914;13.858;2023-08-07T03:31:46;4.78;;;3.47;;
36189;SDS011;22232;50.914;13.858;2023-08-07T03:34:14;4.32;;;3.92;;
36189;SDS011;22232;50.914;13.858;2023-08-07T03:36:42;3.88;;;3.50;;
36189;SDS011;22232;50.914;13.858;2023-08-07T03:39:10;4.20;;;3.67;;
36189;SDS011;22232;50.914;13.858;2023-08-07T03:41:39;5.40;;;3.78;;
36189;SDS011;22232;50.914;13.858;2023-08-07T03:44:09;5.32;;;3.58;;
36189;SDS011;22232;50.914;13.858;2023-08-07T03:46:38;4.68;;;3.03;;
36189;SDS011;22232;50.914;13.858;2023-08-07T03:49:06;4.25;;;3.75;;
36189;SDS011;22232;50.914;13.858;2023-08-07T03:51:33;4.00;;;3.22;;
36189;SDS011;22232;50.914;13.858;2023-08-07T03:54:01;6.22;;;3.88;;
36189;SDS011;22232;50.914;13.858;2023-08-07T03:56:29;4.15;;;3.40;;
36189;SDS011;22232;50.914;13.858;2023-08-07T03:59:04;4.55;;;3.78;;
36189;SDS011;22232;50.914;13.858;2023-08-07T04:01:32;8.63;;;3.67;;
36189;SDS011;22232;50.914;13.858;2023-08-07T04:04:00;5.35;;;4.40;;
36189;SDS011;22232;50.914;13.858;2023-08-07T04:06:27;6.18;;;3.97;;
36189;SDS011;22232;50.914;13.858;2023-08-07T04:08:56;6.43;;;4.72;;
36189;SDS011;22232;50.914;13.858;2023-08-07T04:11:23;7.85;;;4.65;;
36189;SDS011;22232;50.914;13.858;2023-08-07T04:13:52;8.35;;;5.40;;
36189;SDS011;22232;50.914;13.858;2023-08-07T04:16:19;8.57;;;5.07;;
36189;SDS011;22232;50.914;13.858;2023-08-07T04:18:47;8.48;;;5.25;;
36189;SDS011;22232;50.914;13.858;2023-08-07T04:21:15;7.95;;;6.05;;
36189;SDS011;22232;50.914;13.858;2023-08-07T04:23:43;10.07;;;6.35;;
36189;SDS011;22232;50.914;13.858;2023-08-07T04:26:10;10.50;;;6.70;;
36189;SDS011;22232;50.914;13.858;2023-08-07T04:28:38;8.00;;;6.38;;
36189;SDS011;22232;50.914;13.858;2023-08-07T04:31:06;8.02;;;6.07;;
36189;SDS011;22232;50.914;13.858;2023-08-07T04:33:33;8.70;;;6.35;;
36189;SDS011;22232;50.914;13.858;2023-08-07T04:36:01;7.43;;;6.30;;
36189;SDS011;22232;50.914;13.858;2023-08-07T04:38:29;8.57;;;6.15;;
36189;SDS011;22232;50.914;13.858;2023-08-07T04:40:57;9.15;;;6.50;;
36189;SDS011;22232;50.914;13.858;2023-08-07T04:43:25;7.78;;;6.50;;
36189;SDS011;22232;50.914;13.858;2023-08-07T04:45:52;11.20;;;6.43;;
36189;SDS011;22232;50.914;13.858;2023-08-07T04:48:20;7.85;;;6.32;;
36189;SDS011;22232;50.914;13.858;2023-08-07T04:50:49;7.80;;;7.00;;
36189;SDS011;22232;50.914;13.858;2023-08-07T04:53:17;7.25;;;6.20;;
36189;SDS011;22232;50.914;13.858;2023-08-07T04:55:45;8.50;;;6.85;;
36189;SDS011;22232;50.914;13.858;2023-08-07T04:58:13;9.60;;;6.75;;
36189;SDS011;22232;50.914;13.858;2023-08-07T05:00:41;11.63;;;7.63;;
36189;SDS011;22232;50.914;13.858;2023-08-07T05:03:09;11.70;;;8.18;;
36189;SDS011;22232;50.914;13.858;2023-08-07T05:05:37;10.32;;;7.40;;
36189;SDS011;22232;50.914;13.858;2023-08-07T05:08:04;11.00;;;7.60;;
36189;SDS011;22232;50.914;13.858;2023-08-07T05:10:32;9.75;;;8.10;;
36189;SDS011;22232;50.914;13.858;2023-08-07T05:13:00;12.18;;;7.85;;
36189;SDS011;22232;50.914;13.858;2023-08-07T05:15:28;12.82;;;8.55;;
36189;SDS011;22232;50.914;13.858;2023-08-07T05:17:58;13.63;;;9.00;;
36189;SDS011;22232;50.914;13.858;2023-08-07T05:20:25;12.63;;;9.00;;
36189;SDS011;22232;50.914;13.858;2023-08-07T05:22:53;11.30;;;8.57;;
36189;SDS011;22232;50.914;13.858;2023-08-07T05:25:21;13.40;;;9.02;;
36189;SDS011;22232;50.914;13.858;2023-08-07T05:27:49;12.80;;;8.27;;
36189;SDS011;22232;50.914;13.858;2023-08-07T05:30:17;11.00;;;8.15;;
36189;SDS011;22232;50.914;13.858;2023-08-07T05:32:44;7.93;;;6.65;;
36189;SDS011;22232;50.914;13.858;2023-08-07T05:35:12;8.98;;;7.20;;
36189;SDS011;22232;50.914;13.858;2023-08-07T05:37:40;9.63;;;8.15;;
36189;SDS011;22232;50.914;13.858;2023-08-07T05:40:08;10.02;;;7.53;;
36189;SDS011;22232;50.914;13.858;2023-08-07T05:42:39;10.15;;;7.35;;
36189;SDS011;22232;50.914;13.858;2023-08-07T05:45:08;9.18;;;6.68;;
36189;SDS011;22232;50.914;13.858;2023-08-07T05:47:37;7.63;;;6.38;;
36189;SDS011;22232;50.914;13.858;2023-08-07T05:50:05;11.38;;;6.30;;
36189;SDS011;22232;50.914;13.858;2023-08-07T05:52:34;10.35;;;6.38;;
36189;SDS011;22232;50.914;13.858;2023-08-07T05:55:02;8.80;;;6.05;;
36189;SDS011;22232;50.914;13.858;2023-08-07T05:57:33;8.13;;;5.72;;
36189;SDS011;22232;50.914;13.858;2023-08-07T06:00:01;5.50;;;4.80;;
36189;SDS011;22232;50.914;13.858;2023-08-07T06:02:37;6.53;;;4.55;;
36189;SDS011;22232;50.914;13.858;2023-08-07T06:05:05;5.90;;;4.45;;
36189;SDS011;22232;50.914;13.858;2023-08-07T06:07:33;4.90;;;3.95;;
36189;SDS011;22232;50.914;13.858;2023-08-07T06:10:01;7.70;;;4.43;;
36189;SDS011;22232;50.914;13.858;2023-08-07T06:12:29;5.32;;;4.32;;
36189;SDS011;22232;50.914;13.858;2023-08-07T06:14:56;7.13;;;4.40;;
36189;SDS011;22232;50.914;13.858;2023-08-07T06:17:24;5.63;;;4.35;;
36189;SDS011;22232;50.914;13.858;2023-08-07T06:19:52;4.25;;;3.85;;
36189;SDS011;22232;50.914;13.858;2023-08-07T06:22:20;9.02;;;4.13;;
36189;SDS011;22232;50.914;13.858;2023-08-07T06:24:48;6.05;;;3.88;;
36189;SDS011;22232;50.914;13.858;2023-08-07T06:27:16;5.90;;;3.70;;
36189;SDS011;22232;50.914;13.858;2023-08-07T06:29:44;5.68;;;3.58;;
36189;SDS011;22232;50.914;13.858;2023-08-07T06:32:11;6.35;;;3.47;;
36189;SDS011;22232;50.914;13.858;2023-08-07T06:34:39;4.63;;;3.00;;
36189;SDS011;22232;50.914;13.858;2023-08-07T06:37:07;3.53;;;2.78;;
36189;SDS011;22232;50.914;13.858;2023-08-07T06:39:35;5.60;;;3.38;;
36189;SDS011;22232;50.914;13.858;2023-08-07T06:42:02;4.57;;;2.95;;
36189;SDS011;22232;50.914;13.858;2023-08-07T06:44:34;4.43;;;2.75;;
36189;SDS011;22232;50.914;13.858;2023-08-07T06:47:02;5.78;;;3.17;;
36189;SDS011;22232;50.914;13.858;2023-08-07T06:49:30;4.20;;;3.03;;
36189;SDS011;22232;50.914;13.858;2023-08-07T06:51:59;3.72;;;2.38;;
36189;SDS011;22232;50.914;13.858;2023-08-07T06:54:26;2.67;;;2.00;;
36189;SDS011;22232;50.914;13.858;2023-08-07T06:56:54;4.00;;;2.80;;
36189;SDS011;22232;50.914;13.858;2023-08-07T06:59:22;2.90;;;1.95;;
36189;SDS011;22232;50.914;13.858;2023-08-07T07:01:51;2.58;;;2.08;;
36189;SDS011;22232;50.914;13.858;2023-08-07T07:04:19;6.95;;;2.50;;
36189;SDS011;22232;50.914;13.858;2023-08-07T07:06:46;3.78;;;2.30;;
36189;SDS011;22232;50.914;13.858;2023-08-07T07:09:14;3.65;;;2.10;;
36189;SDS011;22232;50.914;13.858;2023-08-07T07:11:43;4.70;;;2.65;;
36189;SDS011;22232;50.914;13.858;2023-08-07T07:14:11;4.55;;;2.05;;
36189;SDS011;22232;50.914;13.858;2023-08-07T07:16:39;5.00;;;2.38;;
36189;SDS011;22232;50.914;13.858;2023-08-07T07:19:09;3.28;;;2.00;;
36189;SDS011;22232;50.914;13.858;2023-08-07T07:21:37;2.33;;;1.90;;
36189;SDS011;22232;50.914;13.858;2023-08-07T07:24:05;3.60;;;2.20;;
36189;SDS011;22232;50.914;13.858;2023-08-07T07:26:33;3.38;;;2.25;;
36189;SDS011;22232;50.914;13.858;2023-08-07T07:29:01;3.67;;;2.10;;
36189;SDS011;22232;50.914;13.858;2023-08-07T07:31:29;5.03;;;2.85;;
36189;SDS011;22232;50.914;13.858;2023-08-07T07:33:56;7.10;;;2.50;;
36189;SDS011;22232;50.914;13.858;2023-08-07T07:36:24;8.38;;;2.88;;
36189;SDS011;22232;50.914;13.858;2023-08-07T07:38:52;5.07;;;2.60;;
36189;SDS011;22232;50.914;13.858;2023-08-07T07:41:21;4.85;;;2.90;;
36189;SDS011;22232;50.914;13.858;2023-08-07T07:43:50;4.22;;;2.70;;
36189;SDS011;22232;50.914;13.858;2023-08-07T07:46:18;4.60;;;2.90;;
36189;SDS011;22232;50.914;13.858;2023-08-07T07:48:45;5.82;;;2.30;;
36189;SDS011;22232;50.914;13.858;2023-08-07T07:51:13;4.20;;;2.10;;
36189;SDS011;22232;50.914;13.858;2023-08-07T07:53:41;3.33;;;2.30;;
36189;SDS011;22232;50.914;13.858;2023-08-07T07:56:09;6.95;;;2.60;;
36189;SDS011;22232;50.914;13.858;2023-08-07T07:58:37;4.13;;;2.40;;
36189;SDS011;22232;50.914;13.858;2023-08-07T08:01:05;2.72;;;2.22;;
36189;SDS011;22232;50.914;13.858;2023-08-07T08:03:33;2.75;;;2.13;;
36189;SDS011;22232;50.914;13.858;2023-08-07T08:06:01;4.85;;;1.92;;
36189;SDS011;22232;50.914;13.858;2023-08-07T08:08:29;3.80;;;2.22;;
36189;SDS011;22232;50.914;13.858;2023-08-07T08:10:57;2.65;;;1.77;;
36189;SDS011;22232;50.914;13.858;2023-08-07T08:13:27;4.28;;;2.10;;
36189;SDS011;22232;50.914;13.858;2023-08-07T08:15:56;2.35;;;1.70;;
36189;SDS011;22232;50.914;13.858;2023-08-07T08:18:23;4.30;;;1.95;;
36189;SDS011;22232;50.914;13.858;2023-08-07T08:20:51;1.60;;;1.48;;
36189;SDS011;22232;50.914;13.858;2023-08-07T08:23:19;2.60;;;1.80;;
36189;SDS011;22232;50.914;13.858;2023-08-07T08:25:47;2.53;;;1.63;;
36189;SDS011;22232;50.914;13.858;2023-08-07T08:28:16;2.20;;;1.58;;
36189;SDS011;22232;50.914;13.858;2023-08-07T08:30:45;1.80;;;1.25;;
36189;SDS011;22232;50.914;13.858;2023-08-07T08:33:12;1.65;;;1.40;;
36189;SDS011;22232;50.914;13.858;2023-08-07T08:35:41;1.60;;;1.50;;
36189;SDS011;22232;50.914;13.858;2023-08-07T08:38:09;1.42;;;1.10;;
36189;SDS011;22232;50.914;13.858;2023-08-07T08:40:37;1.63;;;1.52;;
36189;SDS011;22232;50.914;13.858;2023-08-07T08:43:06;1.60;;;1.20;;
36189;SDS011;22232;50.914;13.858;2023-08-07T08:45:33;3.90;;;1.15;;
36189;SDS011;22232;50.914;13.858;2023-08-07T08:48:05;4.05;;;1.30;;
36189;SDS011;22232;50.914;13.858;2023-08-07T08:50:36;1.25;;;1.15;;
36189;SDS011;22232;50.914;13.858;2023-08-07T08:53:05;2.70;;;1.35;;
36189;SDS011;22232;50.914;13.858;2023-08-07T08:55:38;2.13;;;1.55;;
36189;SDS011;22232;50.914;13.858;2023-08-07T08:58:10;1.58;;;1.30;;
36189;SDS011;22232;50.914;13.858;2023-08-07T09:00:38;1.65;;;1.30;;
36189;SDS011;22232;50.914;13.858;2023-08-07T09:03:05;1.63;;;1.48;;
36189;SDS011;22232;50.914;13.858;2023-08-07T09:05:34;4.28;;;1.63;;
36189;SDS011;22232;50.914;13.858;2023-08-07T09:08:04;3.05;;;1.38;;
36189;SDS011;22232;50.914;13.858;2023-08-07T09:10:32;3.88;;;1.40;;
36189;SDS011;22232;50.914;13.858;2023-08-07T09:13:02;1.77;;;1.15;;
36189;SDS011;22232;50.914;13.858;2023-08-07T09:15:32;1.20;;;1.10;;
36189;SDS011;22232;50.914;13.858;2023-08-07T09:18:00;2.22;;;1.33;;
36189;SDS011;22232;50.914;13.858;2023-08-07T09:23:06;1.52;;;1.20;;
36189;SDS011;22232;50.914;13.858;2023-08-07T09:25:34;1.50;;;1.40;;
36189;SDS011;22232;50.914;13.858;2023-08-07T09:28:03;1.33;;;1.23;;
36189;SDS011;22232;50.914;13.858;2023-08-07T09:30:35;5.32;;;1.75;;
36189;SDS011;22232;50.914;13.858;2023-08-07T09:33:05;4.47;;;1.40;;
36189;SDS011;22232;50.914;13.858;2023-08-07T09:35:33;1.58;;;1.20;;
36189;SDS011;22232;50.914;13.858;2023-08-07T09:38:01;4.03;;;1.33;;
36189;SDS011;22232;50.914;13.858;2023-08-07T09:40:29;1.52;;;1.30;;
36189;SDS011;22232;50.914;13.858;2023-08-07T09:43:00;1.40;;;1.30;;
36189;SDS011;22232;50.914;13.858;2023-08-07T09:45:28;2.00;;;1.02;;
36189;SDS011;22232;50.914;13.858;2023-08-07T09:48:01;3.25;;;1.00;;
36189;SDS011;22232;50.914;13.858;2023-08-07T09:50:30;2.95;;;1.17;;
36189;SDS011;22232;50.914;13.858;2023-08-07T09:52:59;1.10;;;1.00;;
36189;SDS011;22232;50.914;13.858;2023-08-07T09:55:27;1.40;;;0.98;;
36189;SDS011;22232;50.914;13.858;2023-08-07T09:57:55;1.65;;;1.00;;
36189;SDS011;22232;50.914;13.858;2023-08-07T10:00:22;2.22;;;1.00;;
36189;SDS011;22232;50.914;13.858;2023-08-07T10:02:50;2.83;;;1.10;;
36189;SDS011;22232;50.914;13.858;2023-08-07T10:05:19;1.40;;;1.30;;
36189;SDS011;22232;50.914;13.858;2023-08-07T10:07:46;3.38;;;1.50;;
36189;SDS011;22232;50.914;13.858;2023-08-07T10:10:15;4.25;;;1.48;;
36189;SDS011;22232;50.914;13.858;2023-08-07T10:12:44;1.75;;;1.13;;
36189;SDS011;22232;50.914;13.858;2023-08-07T10:15:15;2.67;;;1.23;;
36189;SDS011;22232;50.914;13.858;2023-08-07T10:17:43;3.83;;;1.30;;
36189;SDS011;22232;50.914;13.858;2023-08-07T10:20:11;1.65;;;1.50;;
36189;SDS011;22232;50.914;13.858;2023-08-07T10:22:42;1.65;;;1.30;;
36189;SDS011;22232;50.914;13.858;2023-08-07T10:25:12;2.05;;;1.50;;
36189;SDS011;22232;50.914;13.858;2023-08-07T10:27:40;1.38;;;0.98;;
36189;SDS011;22232;50.914;13.858;2023-08-07T10:30:10;1.73;;;1.30;;
36189;SDS011;22232;50.914;13.858;2023-08-07T10:32:42;1.77;;;1.20;;
36189;SDS011;22232;50.914;13.858;2023-08-07T10:35:32;2.03;;;1.17;;
36189;SDS011;22232;50.914;13.858;2023-08-07T10:38:10;2.38;;;1.00;;
36189;SDS011;22232;50.914;13.858;2023-08-07T10:41:00;1.95;;;0.95;;
36189;SDS011;22232;50.914;13.858;2023-08-07T10:43:30;1.02;;;0.90;;
36189;SDS011;22232;50.914;13.858;2023-08-07T10:46:46;2.55;;;0.90;;
36189;SDS011;22232;50.914;13.858;2023-08-07T10:48:55;1.40;;;0.90;;
36189;SDS011;22232;50.914;13.858;2023-08-07T10:51:30;1.80;;;1.02;;
36189;SDS011;22232;50.914;13.858;2023-08-07T10:54:01;0.85;;;0.85;;
36189;SDS011;22232;50.914;13.858;2023-08-07T10:56:30;1.10;;;1.00;;
36189;SDS011;22232;50.914;13.858;2023-08-07T10:59:07;2.55;;;1.00;;
36189;SDS011;22232;50.914;13.858;2023-08-07T11:04:11;15.15;;;8.27;;
36189;SDS011;22232;50.914;13.858;2023-08-07T11:06:41;3.55;;;2.72;;
36189;SDS011;22232;50.914;13.858;2023-08-07T11:09:10;11.25;;;6.53;;
36189;SDS011;22232;50.914;13.858;2023-08-07T11:11:47;9.85;;;3.58;;
36189;SDS011;22232;50.914;13.858;2023-08-07T11:14:17;6.28;;;4.03;;
36189;SDS011;22232;50.914;13.858;2023-08-07T11:16:46;4.78;;;3.17;;
36189;SDS011;22232;50.914;13.858;2023-08-07T11:19:15;2.90;;;2.22;;
36189;SDS011;22232;50.914;13.858;2023-08-07T11:21:44;5.18;;;2.47;;
36189;SDS011;22232;50.914;13.858;2023-08-07T11:24:12;4.70;;;2.72;;
36189;SDS011;22232;50.914;13.858;2023-08-07T11:26:44;3.25;;;2.42;;
36189;SDS011;22232;50.914;13.858;2023-08-07T11:29:18;3.20;;;1.67;;
36189;SDS011;22232;50.914;13.858;2023-08-07T11:31:46;2.90;;;1.75;;
36189;SDS011;22232;50.914;13.858;2023-08-07T11:34:15;2.85;;;1.15;;
36189;SDS011;22232;50.914;13.858;2023-08-07T11:36:44;1.20;;;1.00;;
36189;SDS011;22232;50.914;13.858;2023-08-07T11:39:13;6.05;;;1.08;;
36189;SDS011;22232;50.914;13.858;2023-08-07T11:41:41;3.20;;;1.98;;
36189;SDS011;22232;50.914;13.858;2023-08-07T11:44:09;6.80;;;4.28;;
36189;SDS011;22232;50.914;13.858;2023-08-07T11:46:37;8.10;;;4.50;;
36189;SDS011;22232;50.914;13.858;2023-08-07T11:49:05;3.17;;;2.67;;
36189;SDS011;22232;50.914;13.858;2023-08-07T11:51:35;8.40;;;4.70;;
36189;SDS011;22232;50.914;13.858;2023-08-07T11:54:02;2.17;;;1.50;;
36189;SDS011;22232;50.914;13.858;2023-08-07T11:56:30;7.65;;;4.90;;
36189;SDS011;22232;50.914;13.858;2023-08-07T11:58:58;6.18;;;2.95;;
36189;SDS011;22232;50.914;13.858;2023-08-07T12:01:26;6.47;;;3.15;;
36189;SDS011;22232;50.914;13.858;2023-08-07T12:06:33;2.80;;;1.50;;
36189;SDS011;22232;50.914;13.858;2023-08-07T12:09:11;3.15;;;1.92;;
36189;SDS011;22232;50.914;13.858;2023-08-07T12:11:40;1.85;;;1.25;;
36189;SDS011;22232;50.914;13.858;2023-08-07T12:14:08;5.22;;;1.55;;
36189;SDS011;22232;50.914;13.858;2023-08-07T12:16:43;3.08;;;1.58;;
36189;SDS011;22232;50.914;13.858;2023-08-07T12:19:13;1.77;;;0.90;;
36189;SDS011;22232;50.914;13.858;2023-08-07T12:21:42;2.83;;;0.98;;
36189;SDS011;22232;50.914;13.858;2023-08-07T12:24:10;2.22;;;0.77;;
36189;SDS011;22232;50.914;13.858;2023-08-07T12:26:40;0.77;;;0.77;;
36189;SDS011;22232;50.914;13.858;2023-08-07T12:29:08;1.27;;;0.60;;
36189;SDS011;22232;50.914;13.858;2023-08-07T12:31:36;0.93;;;0.60;;
36189;SDS011;22232;50.914;13.858;2023-08-07T12:34:06;0.50;;;0.50;;
36189;SDS011;22232;50.914;13.858;2023-08-07T12:36:38;1.20;;;0.73;;
36189;SDS011;22232;50.914;13.858;2023-08-07T12:39:06;1.02;;;0.70;;
36189;SDS011;22232;50.914;13.858;2023-08-07T12:41:34;0.68;;;0.50;;
36189;SDS011;22232;50.914;13.858;2023-08-07T12:44:04;0.73;;;0.50;;
36189;SDS011;22232;50.914;13.858;2023-08-07T12:46:32;0.70;;;0.57;;
36189;SDS011;22232;50.914;13.858;2023-08-07T12:49:03;0.50;;;0.50;;
36189;SDS011;22232;50.914;13.858;2023-08-07T12:51:31;0.90;;;0.50;;
36189;SDS011;22232;50.914;13.858;2023-08-07T12:53:58;1.23;;;0.70;;
36189;SDS011;22232;50.914;13.858;2023-08-07T12:56:26;1.45;;;0.57;;
36189;SDS011;22232;50.914;13.858;2023-08-07T12:58:54;1.58;;;0.90;;
36189;SDS011;22232;50.914;13.858;2023-08-07T13:01:21;1.88;;;0.60;;
36189;SDS011;22232;50.914;13.858;2023-08-07T13:03:49;0.70;;;0.50;;
36189;SDS011;22232;50.914;13.858;2023-08-07T13:06:17;0.52;;;0.52;;
36189;SDS011;22232;50.914;13.858;2023-08-07T13:08:46;0.88;;;0.52;;
36189;SDS011;22232;50.914;13.858;2023-08-07T13:11:14;1.05;;;0.50;;
36189;SDS011;22232;50.914;13.858;2023-08-07T13:13:41;0.98;;;0.50;;
36189;SDS011;22232;50.914;13.858;2023-08-07T13:16:12;0.50;;;0.50;;
36189;SDS011;22232;50.914;13.858;2023-08-07T13:18:40;0.90;;;0.70;;
36189;SDS011;22232;50.914;13.858;2023-08-07T13:21:08;0.50;;;0.50;;
36189;SDS011;22232;50.914;13.858;2023-08-07T13:23:36;2.17;;;0.60;;
36189;SDS011;22232;50.914;13.858;2023-08-07T13:26:03;3.38;;;0.50;;
36189;SDS011;22232;50.914;13.858;2023-08-07T13:28:31;0.68;;;0.30;;
36189;SDS011;22232;50.914;13.858;2023-08-07T13:30:59;0.40;;;0.32;;
36189;SDS011;22232;50.914;13.858;2023-08-07T13:33:27;2.58;;;0.32;;
36189;SDS011;22232;50.914;13.858;2023-08-07T13:35:54;1.20;;;0.40;;
36189;SDS011;22232;50.914;13.858;2023-08-07T13:38:22;2.10;;;0.50;;
36189;SDS011;22232;50.914;13.858;2023-08-07T13:40:50;2.95;;;0.88;;
36189;SDS011;22232;50.914;13.858;2023-08-07T13:43:18;0.50;;;0.50;;
36189;SDS011;22232;50.914;13.858;2023-08-07T13:45:46;2.15;;;0.50;;
36189;SDS011;22232;50.914;13.858;2023-08-07T13:48:13;0.35;;;0.30;;
36189;SDS011;22232;50.914;13.858;2023-08-07T13:50:41;1.27;;;0.20;;
36189;SDS011;22232;50.914;13.858;2023-08-07T13:53:09;1.08;;;0.30;;
36189;SDS011;22232;50.914;13.858;2023-08-07T13:55:42;0.30;;;0.30;;
36189;SDS011;22232;50.914;13.858;2023-08-07T13:58:11;1.30;;;0.50;;
36189;SDS011;22232;50.914;13.858;2023-08-07T14:00:39;1.13;;;0.40;;
36189;SDS011;22232;50.914;13.858;2023-08-07T14:03:08;1.83;;;0.45;;
36189;SDS011;22232;50.914;13.858;2023-08-07T14:05:38;0.57;;;0.40;;
36189;SDS011;22232;50.914;13.858;2023-08-07T14:08:05;1.90;;;0.50;;
36189;SDS011;22232;50.914;13.858;2023-08-07T14:10:33;0.45;;;0.43;;
36189;SDS011;22232;50.914;13.858;2023-08-07T14:13:01;0.63;;;0.30;;
36189;SDS011;22232;50.914;13.858;2023-08-07T14:15:29;0.57;;;0.30;;
36189;SDS011;22232;50.914;13.858;2023-08-07T14:21:14;0.80;;;0.43;;
36189;SDS011;22232;50.914;13.858;2023-08-07T14:23:41;2.15;;;0.40;;
36189;SDS011;22232;50.914;13.858;2023-08-07T14:26:12;1.23;;;0.50;;
36189;SDS011;22232;50.914;13.858;2023-08-07T14:28:40;1.27;;;0.80;;
36189;SDS011;22232;50.914;13.858;2023-08-07T14:31:08;3.28;;;0.80;;
36189;SDS011;22232;50.914;13.858;2023-08-07T14:33:37;1.73;;;0.50;;
36189;SDS011;22232;50.914;13.858;2023-08-07T14:36:05;1.10;;;0.40;;
36189;SDS011;22232;50.914;13.858;2023-08-07T14:38:33;0.60;;;0.40;;
36189;SDS011;22232;50.914;13.858;2023-08-07T14:41:01;1.45;;;0.50;;
36189;SDS011;22232;50.914;13.858;2023-08-07T14:43:32;0.50;;;0.40;;
36189;SDS011;22232;50.914;13.858;2023-08-07T14:45:59;0.55;;;0.50;;
36189;SDS011;22232;50.914;13.858;2023-08-07T14:48:27;2.70;;;0.77;;
36189;SDS011;22232;50.914;13.858;2023-08-07T14:50:55;0.60;;;0.60;;
36189;SDS011;22232;50.914;13.858;2023-08-07T14:53:24;1.15;;;0.85;;
36189;SDS011;22232;50.914;13.858;2023-08-07T14:55:52;1.17;;;0.57;;
36189;SDS011;22232;50.914;13.858;2023-08-07T14:58:20;0.77;;;0.65;;